sensor_id;sensor_type;location;lat;lon;timestamp;pressure;altitude;pressure_sealevel;temperature;humidity
68137;BME280;54939;50.826;9.030;2024-01-27T00:00:25;100337.78;;;7.75;70.53
68137;BME280;54939;50.826;9.030;2024-01-27T00:00:55;100330.59;;;7.77;70.54
68137;BME280;54939;50.826;9.030;2024-01-27T00:01:25;100337.72;;;7.77;71.57
68137;BME280;54939;50.826;9.030;2024-01-27T00:01:55;100333.34;;;7.76;70.87
68137;BME280;54939;50.826;9.030;2024-01-27T00:02:26;100337.78;;;7.75;70.02
68137;BME280;54939;50.826;9.030;2024-01-27T00:02:56;100331.63;;;7.75;70.39
68137;BME280;54939;50.826;9.030;2024-01-27T00:03:26;100334.28;;;7.75;70.60
68137;BME280;54939;50.826;9.030;2024-01-27T00:03:56;100337.78;;;7.75;70.58
68137;BME280;54939;50.826;9.030;2024-01-27T00:04:27;100338.66;;;7.76;70.86
68137;BME280;54939;50.826;9.030;2024-01-27T00:04:57;100339.59;;;7.75;70.21
68137;BME280;54939;50.826;9.030;2024-01-27T00:05:27;100337.78;;;7.75;70.96
68137;BME280;54939;50.826;9.030;2024-01-27T00:05:58;100336.84;;;7.76;71.23
68137;BME280;54939;50.826;9.030;2024-01-27T00:06:28;100338.66;;;7.76;70.55
68137;BME280;54939;50.826;9.030;2024-01-27T00:06:58;100334.19;;;7.76;70.76
68137;BME280;54939;50.826;9.030;2024-01-27T00:07:28;100337.72;;;7.77;70.33
68137;BME280;54939;50.826;9.030;2024-01-27T00:07:59;100337.72;;;7.77;70.23
68137;BME280;54939;50.826;9.030;2024-01-27T00:08:29;100340.38;;;7.77;70.15
68137;BME280;54939;50.826;9.030;2024-01-27T00:08:59;100341.22;;;7.77;70.34
68137;BME280;54939;50.826;9.030;2024-01-27T00:09:29;100339.50;;;7.76;70.48
68137;BME280;54939;50.826;9.030;2024-01-27T00:09:59;100343.03;;;7.77;70.16
68137;BME280;54939;50.826;9.030;2024-01-27T00:10:30;100333.34;;;7.76;70.05
68137;BME280;54939;50.826;9.030;2024-01-27T00:11:00;100337.72;;;7.77;70.18
68137;BME280;54939;50.826;9.030;2024-01-27T00:11:30;100341.22;;;7.77;70.24
68137;BME280;54939;50.826;9.030;2024-01-27T00:12:01;100335.06;;;7.77;70.56
68137;BME280;54939;50.826;9.030;2024-01-27T00:12:31;100336.84;;;7.76;70.42
68137;BME280;54939;50.826;9.030;2024-01-27T00:13:01;100342.94;;;7.78;70.23
68137;BME280;54939;50.826;9.030;2024-01-27T00:13:32;100341.22;;;7.77;70.40
68137;BME280;54939;50.826;9.030;2024-01-27T00:14:02;100338.56;;;7.77;70.75
68137;BME280;54939;50.826;9.030;2024-01-27T00:14:33;100343.03;;;7.77;70.46
68137;BME280;54939;50.826;9.030;2024-01-27T00:15:06;100331.53;;;7.76;70.55
68137;BME280;54939;50.826;9.030;2024-01-27T00:15:36;100344.81;;;7.76;71.25
68137;BME280;54939;50.826;9.030;2024-01-27T00:16:07;100344.81;;;7.76;71.39
68137;BME280;54939;50.826;9.030;2024-01-27T00:16:37;100340.38;;;7.77;71.20
68137;BME280;54939;50.826;9.030;2024-01-27T00:17:07;100338.56;;;7.77;70.98
68137;BME280;54939;50.826;9.030;2024-01-27T00:17:37;100348.34;;;7.77;71.18
68137;BME280;54939;50.826;9.030;2024-01-27T00:18:07;100342.09;;;7.78;70.91
68137;BME280;54939;50.826;9.030;2024-01-27T00:18:38;100356.22;;;7.78;70.91
68137;BME280;54939;50.826;9.030;2024-01-27T00:19:08;100343.03;;;7.77;70.98
68137;BME280;54939;50.826;9.030;2024-01-27T00:19:38;100347.41;;;7.78;70.55
68137;BME280;54939;50.826;9.030;2024-01-27T00:20:09;100340.38;;;7.77;71.10
68137;BME280;54939;50.826;9.030;2024-01-27T00:20:39;100348.34;;;7.77;70.55
68137;BME280;54939;50.826;9.030;2024-01-27T00:21:10;100345.69;;;7.77;70.80
68137;BME280;54939;50.826;9.030;2024-01-27T00:21:40;100351.84;;;7.77;71.05
68137;BME280;54939;50.826;9.030;2024-01-27T00:22:10;100351.00;;;7.77;70.85
68137;BME280;54939;50.826;9.030;2024-01-27T00:22:40;100351.00;;;7.77;70.78
68137;BME280;54939;50.826;9.030;2024-01-27T00:23:11;100345.59;;;7.78;70.65
68137;BME280;54939;50.826;9.030;2024-01-27T00:23:41;100347.41;;;7.78;70.72
68137;BME280;54939;50.826;9.030;2024-01-27T00:24:13;100350.91;;;7.78;70.80
68137;BME280;54939;50.826;9.030;2024-01-27T00:24:43;100352.81;;;7.76;70.85
68137;BME280;54939;50.826;9.030;2024-01-27T00:25:13;100350.16;;;7.76;70.95
68137;BME280;54939;50.826;9.030;2024-01-27T00:25:43;100351.00;;;7.77;70.89
68137;BME280;54939;50.826;9.030;2024-01-27T00:26:13;100346.53;;;7.77;71.69
68137;BME280;54939;50.826;9.030;2024-01-27T00:26:44;100346.63;;;7.76;70.78
68137;BME280;54939;50.826;9.030;2024-01-27T00:27:14;100345.69;;;7.77;71.04
68137;BME280;54939;50.826;9.030;2024-01-27T00:27:44;100353.66;;;7.77;70.54
68137;BME280;54939;50.826;9.030;2024-01-27T00:28:14;100351.00;;;7.77;70.67
68137;BME280;54939;50.826;9.030;2024-01-27T00:28:45;100355.38;;;7.78;71.12
68137;BME280;54939;50.826;9.030;2024-01-27T00:29:15;100358.97;;;7.77;71.09
68137;BME280;54939;50.826;9.030;2024-01-27T00:29:45;100343.03;;;7.77;70.62
68137;BME280;54939;50.826;9.030;2024-01-27T00:30:15;100354.53;;;7.77;70.97
68137;BME280;54939;50.826;9.030;2024-01-27T00:30:46;100352.72;;;7.78;70.85
68137;BME280;54939;50.826;9.030;2024-01-27T00:31:16;100349.28;;;7.76;70.74
68137;BME280;54939;50.826;9.030;2024-01-27T00:31:46;100352.81;;;7.76;71.03
68137;BME280;54939;50.826;9.030;2024-01-27T00:32:16;100346.63;;;7.76;70.52
68137;BME280;54939;50.826;9.030;2024-01-27T00:32:47;100346.63;;;7.76;71.15
68137;BME280;54939;50.826;9.030;2024-01-27T00:33:17;100348.34;;;7.77;71.15
68137;BME280;54939;50.826;9.030;2024-01-27T00:33:47;100350.16;;;7.76;70.65
68137;BME280;54939;50.826;9.030;2024-01-27T00:34:17;100352.72;;;7.78;70.65
68137;BME280;54939;50.826;9.030;2024-01-27T00:34:47;100348.44;;;7.75;70.31
68137;BME280;54939;50.826;9.030;2024-01-27T00:35:18;100345.78;;;7.75;70.52
68137;BME280;54939;50.826;9.030;2024-01-27T00:35:48;100344.91;;;7.75;70.75
68137;BME280;54939;50.826;9.030;2024-01-27T00:36:18;100346.63;;;7.76;71.31
68137;BME280;54939;50.826;9.030;2024-01-27T00:36:49;100340.47;;;7.75;70.34
68137;BME280;54939;50.826;9.030;2024-01-27T00:37:20;100348.34;;;7.77;70.52
68137;BME280;54939;50.826;9.030;2024-01-27T00:37:50;100350.16;;;7.76;70.50
68137;BME280;54939;50.826;9.030;2024-01-27T00:38:20;100348.44;;;7.75;70.80
68137;BME280;54939;50.826;9.030;2024-01-27T00:38:50;100351.09;;;7.75;70.71
68137;BME280;54939;50.826;9.030;2024-01-27T00:39:20;100352.91;;;7.75;70.33
68137;BME280;54939;50.826;9.030;2024-01-27T00:39:50;100356.31;;;7.77;70.53
68137;BME280;54939;50.826;9.030;2024-01-27T00:40:22;100351.94;;;7.76;70.21
68137;BME280;54939;50.826;9.030;2024-01-27T00:40:52;100343.13;;;7.75;71.26
68137;BME280;54939;50.826;9.030;2024-01-27T00:41:23;100351.22;;;7.74;70.26
68137;BME280;54939;50.826;9.030;2024-01-27T00:41:53;100345.03;;;7.73;70.21
68137;BME280;54939;50.826;9.030;2024-01-27T00:42:25;100348.44;;;7.75;70.83
68137;BME280;54939;50.826;9.030;2024-01-27T00:42:55;100352.91;;;7.75;70.35
68137;BME280;54939;50.826;9.030;2024-01-27T00:43:25;100352.91;;;7.75;70.66
68137;BME280;54939;50.826;9.030;2024-01-27T00:43:56;100354.59;;;7.76;70.22
68137;BME280;54939;50.826;9.030;2024-01-27T00:44:26;100346.75;;;7.74;71.05
68137;BME280;54939;50.826;9.030;2024-01-27T00:44:56;100350.22;;;7.75;70.35
68137;BME280;54939;50.826;9.030;2024-01-27T00:45:26;100350.16;;;7.76;70.19
68137;BME280;54939;50.826;9.030;2024-01-27T00:45:58;100346.63;;;7.76;71.28
68137;BME280;54939;50.826;9.030;2024-01-27T00:46:28;100348.34;;;7.77;70.54
68137;BME280;54939;50.826;9.030;2024-01-27T00:46:58;100349.19;;;7.77;71.06
68137;BME280;54939;50.826;9.030;2024-01-27T00:47:29;100344.81;;;7.76;71.44
68137;BME280;54939;50.826;9.030;2024-01-27T00:47:59;100351.94;;;7.76;70.43
68137;BME280;54939;50.826;9.030;2024-01-27T00:48:29;100345.78;;;7.75;71.09
68137;BME280;54939;50.826;9.030;2024-01-27T00:48:59;100351.09;;;7.75;71.02
68137;BME280;54939;50.826;9.030;2024-01-27T00:49:30;100359.06;;;7.75;70.86
68137;BME280;54939;50.826;9.030;2024-01-27T00:50:00;100352.06;;;7.74;71.53
68137;BME280;54939;50.826;9.030;2024-01-27T00:50:30;100353.00;;;7.73;71.45
68137;BME280;54939;50.826;9.030;2024-01-27T00:51:00;100352.91;;;7.75;70.60
68137;BME280;54939;50.826;9.030;2024-01-27T00:51:30;100342.47;;;7.72;70.73
68137;BME280;54939;50.826;9.030;2024-01-27T00:52:00;100350.22;;;7.75;70.77
68137;BME280;54939;50.826;9.030;2024-01-27T00:52:31;100355.56;;;7.75;70.88
68137;BME280;54939;50.826;9.030;2024-01-27T00:53:01;100351.09;;;7.75;70.74
68137;BME280;54939;50.826;9.030;2024-01-27T00:53:31;100354.72;;;7.74;70.79
68137;BME280;54939;50.826;9.030;2024-01-27T00:54:01;100348.44;;;7.75;70.75
68137;BME280;54939;50.826;9.030;2024-01-27T00:54:32;100351.09;;;7.75;71.05
68137;BME280;54939;50.826;9.030;2024-01-27T00:55:02;100350.16;;;7.76;70.32
68137;BME280;54939;50.826;9.030;2024-01-27T00:55:32;100351.09;;;7.75;70.35
68137;BME280;54939;50.826;9.030;2024-01-27T00:56:02;100347.56;;;7.75;70.83
68137;BME280;54939;50.826;9.030;2024-01-27T00:56:33;100354.59;;;7.76;70.25
68137;BME280;54939;50.826;9.030;2024-01-27T00:57:03;100353.75;;;7.75;70.94
68137;BME280;54939;50.826;9.030;2024-01-27T00:57:33;100352.91;;;7.75;71.09
68137;BME280;54939;50.826;9.030;2024-01-27T00:58:03;100356.41;;;7.75;71.12
68137;BME280;54939;50.826;9.030;2024-01-27T00:58:33;100346.75;;;7.74;70.69
68137;BME280;54939;50.826;9.030;2024-01-27T00:59:04;100355.56;;;7.75;71.33
68137;BME280;54939;50.826;9.030;2024-01-27T00:59:34;100352.91;;;7.75;70.89
68137;BME280;54939;50.826;9.030;2024-01-27T01:00:05;100356.31;;;7.77;70.88
68137;BME280;54939;50.826;9.030;2024-01-27T01:00:36;100354.72;;;7.74;70.77
68137;BME280;54939;50.826;9.030;2024-01-27T01:01:06;100363.66;;;7.73;70.74
68137;BME280;54939;50.826;9.030;2024-01-27T01:01:37;100357.38;;;7.74;70.79
68137;BME280;54939;50.826;9.030;2024-01-27T01:02:07;100361.84;;;7.74;71.36
68137;BME280;54939;50.826;9.030;2024-01-27T01:02:37;100367.16;;;7.74;70.63
68137;BME280;54939;50.826;9.030;2024-01-27T01:03:07;100365.44;;;7.73;70.54
68137;BME280;54939;50.826;9.030;2024-01-27T01:03:38;100369.81;;;7.74;71.46
68137;BME280;54939;50.826;9.030;2024-01-27T01:04:08;100359.28;;;7.72;70.93
68137;BME280;54939;50.826;9.030;2024-01-27T01:04:38;100361.00;;;7.73;71.21
68137;BME280;54939;50.826;9.030;2024-01-27T01:05:08;100369.81;;;7.74;70.84
68137;BME280;54939;50.826;9.030;2024-01-27T01:05:39;100361.84;;;7.74;70.37
68137;BME280;54939;50.826;9.030;2024-01-27T01:06:09;100361.84;;;7.74;71.05
68137;BME280;54939;50.826;9.030;2024-01-27T01:06:39;100372.47;;;7.74;70.70
68137;BME280;54939;50.826;9.030;2024-01-27T01:07:10;100368.03;;;7.74;70.46
68137;BME280;54939;50.826;9.030;2024-01-27T01:07:40;100368.03;;;7.74;70.52
68137;BME280;54939;50.826;9.030;2024-01-27T01:08:10;100371.63;;;7.73;70.46
68137;BME280;54939;50.826;9.030;2024-01-27T01:08:40;100369.81;;;7.74;71.02
68137;BME280;54939;50.826;9.030;2024-01-27T01:09:11;100370.69;;;7.74;70.46
68137;BME280;54939;50.826;9.030;2024-01-27T01:09:41;100368.75;;;7.76;70.78
68137;BME280;54939;50.826;9.030;2024-01-27T01:10:11;100368.84;;;7.75;70.31
68137;BME280;54939;50.826;9.030;2024-01-27T01:10:41;100376.81;;;7.75;70.73
68137;BME280;54939;50.826;9.030;2024-01-27T01:11:11;100367.91;;;7.76;70.90
68137;BME280;54939;50.826;9.030;2024-01-27T01:11:42;100375.03;;;7.75;70.66
68137;BME280;54939;50.826;9.030;2024-01-27T01:12:12;100374.16;;;7.75;70.50
68137;BME280;54939;50.826;9.030;2024-01-27T01:12:42;100371.50;;;7.75;70.06
68137;BME280;54939;50.826;9.030;2024-01-27T01:13:12;100374.16;;;7.75;70.72
68137;BME280;54939;50.826;9.030;2024-01-27T01:13:42;100369.81;;;7.74;70.63
68137;BME280;54939;50.826;9.030;2024-01-27T01:14:13;100373.34;;;7.74;70.88
68137;BME280;54939;50.826;9.030;2024-01-27T01:14:43;100368.09;;;7.73;70.64
68137;BME280;54939;50.826;9.030;2024-01-27T01:15:13;100378.75;;;7.73;70.78
68137;BME280;54939;50.826;9.030;2024-01-27T01:15:43;100374.28;;;7.73;70.95
68137;BME280;54939;50.826;9.030;2024-01-27T01:16:14;100369.91;;;7.72;71.14
68137;BME280;54939;50.826;9.030;2024-01-27T01:16:44;100381.41;;;7.73;70.42
68137;BME280;54939;50.826;9.030;2024-01-27T01:17:14;100378.75;;;7.73;71.13
68137;BME280;54939;50.826;9.030;2024-01-27T01:17:44;100383.13;;;7.74;71.20
68137;BME280;54939;50.826;9.030;2024-01-27T01:18:14;100379.59;;;7.73;71.24
68137;BME280;54939;50.826;9.030;2024-01-27T01:18:45;100378.75;;;7.73;70.89
68137;BME280;54939;50.826;9.030;2024-01-27T01:19:15;100378.75;;;7.73;70.70
68137;BME280;54939;50.826;9.030;2024-01-27T01:19:45;100376.94;;;7.73;70.95
68137;BME280;54939;50.826;9.030;2024-01-27T01:20:15;100378.75;;;7.73;71.26
68137;BME280;54939;50.826;9.030;2024-01-27T01:20:45;100386.72;;;7.73;70.88
68137;BME280;54939;50.826;9.030;2024-01-27T01:21:16;100386.72;;;7.73;71.52
68137;BME280;54939;50.826;9.030;2024-01-27T01:21:46;100389.28;;;7.74;71.25
68137;BME280;54939;50.826;9.030;2024-01-27T01:22:16;100386.72;;;7.73;70.91
68137;BME280;54939;50.826;9.030;2024-01-27T01:22:46;100382.25;;;7.73;70.82
68137;BME280;54939;50.826;9.030;2024-01-27T01:23:16;100389.28;;;7.74;71.16
68137;BME280;54939;50.826;9.030;2024-01-27T01:23:47;100385.78;;;7.74;70.98
68137;BME280;54939;50.826;9.030;2024-01-27T01:24:17;100390.13;;;7.75;70.77
68137;BME280;54939;50.826;9.030;2024-01-27T01:24:47;100395.44;;;7.75;70.51
68137;BME280;54939;50.826;9.030;2024-01-27T01:25:17;100395.56;;;7.73;70.70
68137;BME280;54939;50.826;9.030;2024-01-27T01:25:47;100390.22;;;7.73;70.98
68137;BME280;54939;50.826;9.030;2024-01-27T01:26:18;100389.38;;;7.73;71.38
68137;BME280;54939;50.826;9.030;2024-01-27T01:26:48;100392.03;;;7.73;70.35
68137;BME280;54939;50.826;9.030;2024-01-27T01:27:18;100393.84;;;7.72;70.61
68137;BME280;54939;50.826;9.030;2024-01-27T01:27:51;100397.34;;;7.73;70.11
68137;BME280;54939;50.826;9.030;2024-01-27T01:28:22;100394.69;;;7.73;70.20
68137;BME280;54939;50.826;9.030;2024-01-27T01:28:52;100393.75;;;7.74;70.90
68137;BME280;54939;50.826;9.030;2024-01-27T01:29:22;100399.91;;;7.74;70.80
68137;BME280;54939;50.826;9.030;2024-01-27T01:29:52;100398.94;;;7.75;70.59
68137;BME280;54939;50.826;9.030;2024-01-27T01:30:23;100399.91;;;7.74;70.43
68137;BME280;54939;50.826;9.030;2024-01-27T01:30:53;100400.75;;;7.75;70.59
68137;BME280;54939;50.826;9.030;2024-01-27T01:31:23;100403.53;;;7.73;70.80
68137;BME280;54939;50.826;9.030;2024-01-27T01:31:53;100399.06;;;7.74;70.93
68137;BME280;54939;50.826;9.030;2024-01-27T01:32:23;100404.25;;;7.75;70.78
68137;BME280;54939;50.826;9.030;2024-01-27T01:32:53;100409.69;;;7.74;70.82
68137;BME280;54939;50.826;9.030;2024-01-27T01:33:24;100406.19;;;7.73;70.24
68137;BME280;54939;50.826;9.030;2024-01-27T01:33:54;100402.66;;;7.73;70.93
68137;BME280;54939;50.826;9.030;2024-01-27T01:34:24;100408.84;;;7.73;70.84
68137;BME280;54939;50.826;9.030;2024-01-27T01:34:54;100401.81;;;7.72;70.17
68137;BME280;54939;50.826;9.030;2024-01-27T01:35:25;100401.81;;;7.72;70.24
68137;BME280;54939;50.826;9.030;2024-01-27T01:35:55;100393.84;;;7.72;71.01
68137;BME280;54939;50.826;9.030;2024-01-27T01:36:25;100399.25;;;7.71;70.83
68137;BME280;54939;50.826;9.030;2024-01-27T01:36:55;100401.81;;;7.72;71.06
68137;BME280;54939;50.826;9.030;2024-01-27T01:37:27;100412.44;;;7.72;70.35
68137;BME280;54939;50.826;9.030;2024-01-27T01:37:57;100405.41;;;7.71;71.44
68137;BME280;54939;50.826;9.030;2024-01-27T01:38:27;100402.75;;;7.71;70.75
68137;BME280;54939;50.826;9.030;2024-01-27T01:38:57;100407.22;;;7.71;71.19
68137;BME280;54939;50.826;9.030;2024-01-27T01:39:28;100402.75;;;7.71;71.47
68137;BME280;54939;50.826;9.030;2024-01-27T01:39:58;100409.88;;;7.71;70.99
68137;BME280;54939;50.826;9.030;2024-01-27T01:40:28;100408.94;;;7.72;70.43
68137;BME280;54939;50.826;9.030;2024-01-27T01:40:59;100409.00;;;7.70;70.58
68137;BME280;54939;50.826;9.030;2024-01-27T01:41:29;100416.03;;;7.71;70.63
68137;BME280;54939;50.826;9.030;2024-01-27T01:41:59;100411.59;;;7.72;71.01
68137;BME280;54939;50.826;9.030;2024-01-27T01:42:29;100417.75;;;7.72;70.54
68137;BME280;54939;50.826;9.030;2024-01-27T01:42:59;100411.59;;;7.72;70.49
68137;BME280;54939;50.826;9.030;2024-01-27T01:43:30;100418.72;;;7.71;70.45
68137;BME280;54939;50.826;9.030;2024-01-27T01:44:00;100409.88;;;7.71;70.54
68137;BME280;54939;50.826;9.030;2024-01-27T01:44:30;100415.09;;;7.72;70.74
68137;BME280;54939;50.826;9.030;2024-01-27T01:45:04;100413.38;;;7.71;71.22
68137;BME280;54939;50.826;9.030;2024-01-27T01:45:34;100414.25;;;7.72;70.83
68137;BME280;54939;50.826;9.030;2024-01-27T01:46:04;100414.25;;;7.72;70.69
68137;BME280;54939;50.826;9.030;2024-01-27T01:46:34;100413.38;;;7.71;70.54
68137;BME280;54939;50.826;9.030;2024-01-27T01:47:05;100420.59;;;7.69;70.96
68137;BME280;54939;50.826;9.030;2024-01-27T01:47:35;100419.66;;;7.70;71.50
68137;BME280;54939;50.826;9.030;2024-01-27T01:48:06;100419.66;;;7.70;70.75
68137;BME280;54939;50.826;9.030;2024-01-27T01:48:37;100426.78;;;7.70;71.10
68137;BME280;54939;50.826;9.030;2024-01-27T01:49:07;100418.78;;;7.70;71.48
68137;BME280;54939;50.826;9.030;2024-01-27T01:49:37;100416.13;;;7.70;71.73
68137;BME280;54939;50.826;9.030;2024-01-27T01:50:07;100420.50;;;7.71;70.53
68137;BME280;54939;50.826;9.030;2024-01-27T01:50:38;100421.44;;;7.70;70.67
68137;BME280;54939;50.826;9.030;2024-01-27T01:51:08;100416.13;;;7.70;70.40
68137;BME280;54939;50.826;9.030;2024-01-27T01:51:38;100415.28;;;7.69;70.26
68137;BME280;54939;50.826;9.030;2024-01-27T01:52:09;100418.78;;;7.70;70.75
68137;BME280;54939;50.826;9.030;2024-01-27T01:52:40;100414.34;;;7.70;70.72
68137;BME280;54939;50.826;9.030;2024-01-27T01:53:10;100412.69;;;7.68;71.18
68137;BME280;54939;50.826;9.030;2024-01-27T01:53:40;100415.19;;;7.71;70.94
68137;BME280;54939;50.826;9.030;2024-01-27T01:54:11;100414.34;;;7.70;71.05
68137;BME280;54939;50.826;9.030;2024-01-27T01:54:41;100411.69;;;7.70;71.22
68137;BME280;54939;50.826;9.030;2024-01-27T01:55:11;100417.94;;;7.69;70.58
68137;BME280;54939;50.826;9.030;2024-01-27T01:55:42;100422.41;;;7.69;71.19
68137;BME280;54939;50.826;9.030;2024-01-27T01:56:13;100416.13;;;7.70;70.78
68137;BME280;54939;50.826;9.030;2024-01-27T01:56:44;100418.78;;;7.70;70.80
68137;BME280;54939;50.826;9.030;2024-01-27T01:57:14;100416.13;;;7.70;70.62
68137;BME280;54939;50.826;9.030;2024-01-27T01:57:44;100423.25;;;7.69;70.91
68137;BME280;54939;50.826;9.030;2024-01-27T01:58:15;100417.94;;;7.69;70.98
68137;BME280;54939;50.826;9.030;2024-01-27T01:58:45;100420.50;;;7.71;70.40
68137;BME280;54939;50.826;9.030;2024-01-27T01:59:15;100420.50;;;7.71;70.73
68137;BME280;54939;50.826;9.030;2024-01-27T01:59:45;100424.97;;;7.70;71.08
68137;BME280;54939;50.826;9.030;2024-01-27T02:00:15;100420.50;;;7.71;71.21
68137;BME280;54939;50.826;9.030;2024-01-27T02:00:46;100423.25;;;7.69;70.91
68137;BME280;54939;50.826;9.030;2024-01-27T02:01:19;100418.88;;;7.68;70.96
68137;BME280;54939;50.826;9.030;2024-01-27T02:01:51;100418.78;;;7.70;71.16
68137;BME280;54939;50.826;9.030;2024-01-27T02:02:21;100416.22;;;7.68;70.52
68137;BME280;54939;50.826;9.030;2024-01-27T02:02:51;100422.41;;;7.69;71.29
68137;BME280;54939;50.826;9.030;2024-01-27T02:03:21;100414.53;;;7.67;71.05
68137;BME280;54939;50.826;9.030;2024-01-27T02:03:54;100425.06;;;7.69;70.31
68137;BME280;54939;50.826;9.030;2024-01-27T02:04:24;100418.88;;;7.68;70.49
68137;BME280;54939;50.826;9.030;2024-01-27T02:04:55;100427.63;;;7.70;71.14
68137;BME280;54939;50.826;9.030;2024-01-27T02:05:25;100425.81;;;7.71;70.69
68137;BME280;54939;50.826;9.030;2024-01-27T02:05:55;100424.03;;;7.71;71.42
68137;BME280;54939;50.826;9.030;2024-01-27T02:06:25;100424.97;;;7.70;71.50
68137;BME280;54939;50.826;9.030;2024-01-27T02:06:55;100419.72;;;7.69;70.37
68137;BME280;54939;50.826;9.030;2024-01-27T02:07:26;100425.91;;;7.69;70.95
68137;BME280;54939;50.826;9.030;2024-01-27T02:07:56;100426.78;;;7.70;71.33
68137;BME280;54939;50.826;9.030;2024-01-27T02:08:29;100423.25;;;7.69;71.64
68137;BME280;54939;50.826;9.030;2024-01-27T02:08:59;100417.94;;;7.69;71.24
68137;BME280;54939;50.826;9.030;2024-01-27T02:09:29;100424.97;;;7.70;70.77
68137;BME280;54939;50.826;9.030;2024-01-27T02:09:59;100423.25;;;7.69;70.96
68137;BME280;54939;50.826;9.030;2024-01-27T02:10:29;100426.00;;;7.68;70.25
68137;BME280;54939;50.826;9.030;2024-01-27T02:11:06;100417.06;;;7.69;70.89
68137;BME280;54939;50.826;9.030;2024-01-27T02:11:36;100424.19;;;7.68;70.53
68137;BME280;54939;50.826;9.030;2024-01-27T02:12:06;100427.72;;;7.69;70.56
68137;BME280;54939;50.826;9.030;2024-01-27T02:12:37;100431.22;;;7.69;70.82
68137;BME280;54939;50.826;9.030;2024-01-27T02:13:48;100421.53;;;7.68;71.00
68137;BME280;54939;50.826;9.030;2024-01-27T02:14:18;100423.34;;;7.68;70.76
68137;BME280;54939;50.826;9.030;2024-01-27T02:14:49;100425.06;;;7.69;70.53
68137;BME280;54939;50.826;9.030;2024-01-27T02:15:19;100427.72;;;7.69;71.11
68137;BME280;54939;50.826;9.030;2024-01-27T02:15:50;100430.28;;;7.70;71.00
68137;BME280;54939;50.826;9.030;2024-01-27T02:16:20;100424.09;;;7.70;70.89
68137;BME280;54939;50.826;9.030;2024-01-27T02:16:51;100429.44;;;7.70;70.62
68137;BME280;54939;50.826;9.030;2024-01-27T02:17:21;100428.56;;;7.69;71.47
68137;BME280;54939;50.826;9.030;2024-01-27T02:17:52;100427.72;;;7.69;71.51
68137;BME280;54939;50.826;9.030;2024-01-27T02:18:22;100430.38;;;7.69;70.68
68137;BME280;54939;50.826;9.030;2024-01-27T02:18:52;100429.50;;;7.68;70.25
68137;BME280;54939;50.826;9.030;2024-01-27T02:19:22;100430.38;;;7.69;70.32
68137;BME280;54939;50.826;9.030;2024-01-27T02:19:53;100426.78;;;7.70;71.67
68137;BME280;54939;50.826;9.030;2024-01-27T02:20:23;100424.97;;;7.70;70.86
68137;BME280;54939;50.826;9.030;2024-01-27T02:20:53;100423.25;;;7.69;71.14
68137;BME280;54939;50.826;9.030;2024-01-27T02:21:23;100427.84;;;7.67;70.91
68137;BME280;54939;50.826;9.030;2024-01-27T02:21:53;100425.19;;;7.67;70.53
68137;BME280;54939;50.826;9.030;2024-01-27T02:22:23;100424.19;;;7.68;70.39
68137;BME280;54939;50.826;9.030;2024-01-27T02:22:54;100430.38;;;7.69;70.69
68137;BME280;54939;50.826;9.030;2024-01-27T02:23:24;100420.69;;;7.68;70.45
68137;BME280;54939;50.826;9.030;2024-01-27T02:23:54;100420.59;;;7.69;70.28
68137;BME280;54939;50.826;9.030;2024-01-27T02:24:24;100427.63;;;7.70;71.02
68137;BME280;54939;50.826;9.030;2024-01-27T02:24:54;100424.09;;;7.70;70.24
68137;BME280;54939;50.826;9.030;2024-01-27T02:25:25;100425.91;;;7.69;70.70
68137;BME280;54939;50.826;9.030;2024-01-27T02:25:55;100429.50;;;7.68;71.08
68137;BME280;54939;50.826;9.030;2024-01-27T02:26:25;100430.38;;;7.69;71.07
68137;BME280;54939;50.826;9.030;2024-01-27T02:26:55;100433.16;;;7.67;70.57
68137;BME280;54939;50.826;9.030;2024-01-27T02:27:25;100432.16;;;7.68;70.46
68137;BME280;54939;50.826;9.030;2024-01-27T02:27:56;100432.16;;;7.68;71.12
68137;BME280;54939;50.826;9.030;2024-01-27T02:28:26;100428.56;;;7.69;70.29
68137;BME280;54939;50.826;9.030;2024-01-27T02:28:56;100431.22;;;7.69;70.37
68137;BME280;54939;50.826;9.030;2024-01-27T02:29:26;100434.81;;;7.68;70.56
68137;BME280;54939;50.826;9.030;2024-01-27T02:29:58;100431.31;;;7.68;70.42
68137;BME280;54939;50.826;9.030;2024-01-27T02:30:28;100426.84;;;7.68;70.32
68137;BME280;54939;50.826;9.030;2024-01-27T02:30:58;100433.97;;;7.68;70.24
68137;BME280;54939;50.826;9.030;2024-01-27T02:31:29;100425.06;;;7.69;70.51
68137;BME280;54939;50.826;9.030;2024-01-27T02:32:00;100433.97;;;7.68;70.95
68137;BME280;54939;50.826;9.030;2024-01-27T02:32:30;100434.81;;;7.68;70.36
68137;BME280;54939;50.826;9.030;2024-01-27T02:33:01;100432.16;;;7.68;70.13
68137;BME280;54939;50.826;9.030;2024-01-27T02:33:31;100428.66;;;7.68;70.59
68137;BME280;54939;50.826;9.030;2024-01-27T02:34:01;100423.34;;;7.68;70.57
68137;BME280;54939;50.826;9.030;2024-01-27T02:34:31;100425.19;;;7.67;70.91
68137;BME280;54939;50.826;9.030;2024-01-27T02:35:01;100426.00;;;7.68;70.17
68137;BME280;54939;50.826;9.030;2024-01-27T02:35:32;100431.31;;;7.68;70.15
68137;BME280;54939;50.826;9.030;2024-01-27T02:36:02;100421.53;;;7.68;70.33
68137;BME280;54939;50.826;9.030;2024-01-27T02:36:32;100426.00;;;7.68;70.55
68137;BME280;54939;50.826;9.030;2024-01-27T02:37:02;100421.66;;;7.67;70.75
68137;BME280;54939;50.826;9.030;2024-01-27T02:37:33;100423.34;;;7.68;70.53
68137;BME280;54939;50.826;9.030;2024-01-27T02:38:03;100421.66;;;7.67;70.76
68137;BME280;54939;50.826;9.030;2024-01-27T02:38:34;100425.19;;;7.67;70.24
68137;BME280;54939;50.826;9.030;2024-01-27T02:39:04;100426.00;;;7.68;70.56
68137;BME280;54939;50.826;9.030;2024-01-27T02:39:34;100419.84;;;7.67;70.75
68137;BME280;54939;50.826;9.030;2024-01-27T02:40:05;100419.84;;;7.67;70.42
68137;BME280;54939;50.826;9.030;2024-01-27T02:40:36;100425.19;;;7.67;70.77
68137;BME280;54939;50.826;9.030;2024-01-27T02:41:07;100421.66;;;7.67;70.53
68137;BME280;54939;50.826;9.030;2024-01-27T02:41:37;100427.84;;;7.67;70.62